Historical Weather Data

Soule Park Golf Course
1033 East Ojai Ave
Ojai, CA 93023
Date ET
(Inches)
Rain
(Inches)
Temp °F
Humidity
Avg
Wind MPH
Avg
Solar Wm2
Avg
High Ave Low
10/1/17 0.14 0.00 78.4 62.2 47.8 76 2.2 234
10/2/17 0.15 0.00 78.1 63.6 53.0 73 2.2 236
10/3/17 0.12 0.00 75.0 59.8 47.8 75 2.3 196
10/4/17 0.16 0.00 83.3 62.9 44.3 54 2.0 244
10/5/17 0.18 0.00 87.7 65.6 44.9 42 2.4 243
10/6/17 0.18 0.00 94.2 70.0 47.7 35 2.3 241
10/7/17 0.19 0.00 95.5 71.0 49.7 29 2.7 242
10/8/17 0.15 0.00 81.2 63.4 45.9 57 2.2 233
10/9/17 0.18 0.00 86.2 66.6 50.3 49 2.9 237
10/10/17 0.17 0.00 87.6 64.8 45.0 31 2.3 233
10/11/17 0.15 0.00 82.0 61.7 42.6 53 2.1 229
10/12/17 0.13 0.00 79.4 60.7 43.7 68 1.6 216
10/13/17 0.15 0.00 82.2 62.4 42.7 55 2.1 221
10/14/17 0.16 0.00 91.0 65.3 42.0 37 2.2 223
10/15/17 0.17 0.00 94.4 69.7 49.1 27 2.4 226
10/16/17 0.17 0.00 97.4 71.8 50.3 26 2.2 223
10/17/17 0.16 0.00 96.2 73.1 55.0 34 2.1 204
10/18/17 0.15 0.00 90.6 71.8 57.1 45 2.1 205
10/19/17 0.13 0.00 80.6 63.5 48.1 66 2.1 205
10/20/17 0.13 0.00 78.9 62.1 48.9 60 2.2 210
10/21/17 0.14 0.00 82.0 61.7 44.0 43 2.1 214
10/22/17 0.15 0.00 96.9 69.2 48.6 35 2.0 213
10/23/17 0.20 0.00 102.8 75.7 53.2 30 3.5 214
10/24/17 0.18 0.00 102.5 78.8 61.2 28 2.5 210
10/25/17 0.17 0.00 99.6 74.8 55.3 30 2.3 210
10/26/17 0.16 0.00 94.3 70.6 51.0 35 2.2 208
10/27/17 0.15 0.00 95.1 68.7 47.1 42 1.8 207
10/28/17 0.15 0.00 92.6 65.5 47.1 52 2.0 205
10/29/17 0.08 0.00 74.3 57.1 45.2 84 1.8 160
10/30/17 0.05 0.00 70.2 61.9 58.0 77 1.7 74
10/31/17 0.05 0.00 68.6 61.4 56.1 77 1.4 67